createdAt,value
2019-05-09T00:00:04.657Z,20.23
2019-05-09T00:01:04.647Z,20.23
2019-05-09T00:02:04.657Z,20.21
2019-05-09T00:03:04.624Z,20.21
2019-05-09T00:04:04.616Z,20.25
2019-05-09T00:05:04.602Z,20.21
2019-05-09T00:06:04.792Z,20.24
2019-05-09T00:07:04.607Z,20.27
2019-05-09T00:08:04.569Z,20.27
2019-05-09T00:09:04.557Z,20.20
2019-05-09T00:10:04.546Z,20.23
2019-05-09T00:11:04.537Z,20.27
2019-05-09T00:12:04.545Z,20.24
2019-05-09T00:13:04.518Z,20.27
2019-05-09T00:14:04.762Z,20.16
2019-05-09T00:15:04.729Z,20.21
2019-05-09T00:16:04.480Z,20.16
2019-05-09T00:17:04.494Z,20.18
2019-05-09T00:18:04.458Z,20.13
2019-05-09T00:19:04.450Z,20.15
2019-05-09T00:20:04.437Z,20.20
2019-05-09T00:21:04.426Z,20.21
2019-05-09T00:22:04.440Z,20.09
2019-05-09T00:23:04.403Z,20.15
2019-05-09T00:24:04.393Z,20.20
2019-05-09T00:25:04.380Z,20.24
2019-05-09T00:26:04.420Z,20.15
2019-05-09T00:27:04.359Z,20.15
2019-05-09T00:28:04.388Z,20.10
2019-05-09T00:29:04.336Z,20.15
2019-05-09T00:30:04.325Z,20.21
2019-05-09T00:31:04.316Z,20.16
2019-05-09T00:32:04.305Z,20.12
2019-05-09T00:33:04.312Z,20.20
2019-05-09T00:34:04.428Z,20.10
2019-05-09T00:35:04.270Z,20.15
2019-05-09T00:36:04.497Z,20.10
2019-05-09T00:37:04.248Z,20.18
2019-05-09T00:38:04.502Z,20.08
2019-05-09T00:39:04.249Z,20.12
2019-05-09T00:40:04.222Z,20.10
2019-05-09T00:41:04.218Z,20.09
2019-05-09T00:42:04.534Z,20.20
2019-05-09T00:43:04.233Z,20.16
2019-05-09T00:44:04.170Z,20.18
2019-05-09T00:45:04.288Z,20.13
2019-05-09T00:46:04.519Z,20.05
2019-05-09T00:47:04.344Z,20.13
2019-05-09T00:48:04.152Z,20.13
2019-05-09T00:49:05.093Z,20.00
2019-05-09T00:50:05.163Z,19.98
2019-05-09T00:51:04.093Z,20.02
2019-05-09T00:52:04.109Z,19.98
2019-05-09T00:53:04.077Z,20.00
2019-05-09T00:54:04.333Z,20.13
2019-05-09T00:55:04.092Z,19.98
2019-05-09T00:56:04.472Z,20.05
2019-05-09T00:57:04.027Z,20.03
2019-05-09T00:58:04.335Z,20.13
2019-05-09T00:59:04.392Z,20.09
2019-05-09T01:00:04.136Z,20.05
2019-05-09T01:01:04.548Z,20.06
2019-05-09T01:02:04.173Z,20.03
2019-05-09T01:03:03.962Z,20.03
2019-05-09T01:04:04.453Z,20.00
2019-05-09T01:05:04.318Z,19.95
2019-05-09T01:06:04.421Z,19.95
2019-05-09T01:07:03.920Z,20.05
2019-05-09T01:08:04.293Z,20.03
2019-05-09T01:09:04.338Z,20.08
2019-05-09T01:10:04.376Z,20.00
2019-05-09T01:11:11.368Z,20.05
2019-05-09T01:12:04.863Z,19.98
2019-05-09T01:13:03.867Z,20.06
2019-05-09T01:14:03.863Z,20.00
2019-05-09T01:15:03.837Z,19.98
2019-05-09T01:16:04.686Z,19.95
2019-05-09T01:17:04.363Z,20.03
2019-05-09T01:18:04.554Z,20.03
2019-05-09T01:19:03.898Z,20.03
2019-05-09T01:20:03.782Z,20.02
2019-05-09T01:21:04.169Z,20.03
2019-05-09T01:22:03.959Z,19.98
2019-05-09T01:23:03.743Z,19.98
2019-05-09T01:24:03.730Z,19.91
2019-05-09T01:25:04.281Z,19.91
2019-05-09T01:26:04.094Z,19.94
2019-05-09T01:27:03.886Z,19.91
2019-05-09T01:28:03.686Z,19.90
2019-05-09T01:29:04.436Z,19.95
2019-05-09T01:30:04.648Z,19.87
2019-05-09T01:31:04.178Z,19.97
2019-05-09T01:32:03.674Z,19.94
2019-05-09T01:33:03.814Z,19.90
2019-05-09T01:34:04.221Z,19.94
2019-05-09T01:35:03.962Z,19.90
2019-05-09T01:36:03.882Z,19.97
2019-05-09T01:37:03.632Z,19.98
2019-05-09T01:38:03.789Z,19.98
2019-05-09T01:39:03.566Z,19.93
2019-05-09T01:40:04.288Z,19.91
2019-05-09T01:41:04.143Z,20.00
2019-05-09T01:42:03.573Z,19.93
2019-05-09T01:43:04.490Z,19.88
2019-05-09T01:44:04.147Z,19.93
2019-05-09T01:45:03.785Z,19.86
2019-05-09T01:46:03.925Z,19.94
2019-05-09T01:47:04.000Z,19.94
2019-05-09T01:48:03.479Z,19.94
2019-05-09T01:49:03.455Z,20.00
2019-05-09T01:50:03.977Z,19.91
2019-05-09T01:51:03.531Z,19.95
2019-05-09T01:52:03.678Z,19.93
2019-05-09T01:53:04.107Z,19.91
2019-05-09T01:54:03.829Z,19.87
2019-05-09T01:55:03.765Z,19.98
2019-05-09T01:56:03.893Z,19.93
2019-05-09T01:57:03.634Z,19.88
2019-05-09T01:58:03.450Z,19.87
2019-05-09T01:59:03.345Z,19.97
2019-05-09T02:00:04.166Z,19.91
2019-05-09T02:01:03.734Z,19.90
2019-05-09T02:02:08.236Z,19.84
2019-05-09T02:03:04.323Z,19.87
2019-05-09T02:04:04.103Z,19.88
2019-05-09T02:05:04.100Z,19.90
2019-05-09T02:06:03.731Z,19.80
2019-05-09T02:07:04.104Z,19.83
2019-05-09T02:08:03.430Z,19.78
2019-05-09T02:09:03.551Z,19.87
2019-05-09T02:10:03.520Z,19.84
2019-05-09T02:11:03.919Z,19.76
2019-05-09T02:12:04.033Z,19.88
2019-05-09T02:13:03.205Z,19.87
2019-05-09T02:14:04.160Z,19.87
2019-05-09T02:15:03.887Z,19.78
2019-05-09T02:16:03.461Z,19.76
2019-05-09T02:17:03.316Z,19.80
2019-05-09T02:18:05.191Z,19.86
2019-05-09T02:19:04.044Z,19.84
2019-05-09T02:20:03.999Z,19.87
2019-05-09T02:21:04.048Z,19.90
2019-05-09T02:22:03.667Z,19.84
2019-05-09T02:23:03.699Z,19.86
2019-05-09T02:24:03.352Z,19.80
2019-05-09T02:25:04.308Z,19.86
2019-05-09T02:26:04.008Z,19.86
2019-05-09T02:27:03.970Z,19.78
2019-05-09T02:28:03.544Z,19.76
2019-05-09T02:29:03.360Z,19.76
2019-05-09T02:30:05.891Z,19.79
2019-05-09T02:31:05.195Z,19.76
2019-05-09T02:32:04.560Z,19.78
2019-05-09T02:33:05.064Z,19.80
2019-05-09T02:34:04.839Z,19.86
2019-05-09T02:35:04.861Z,19.73
2019-05-09T02:36:02.960Z,19.78
2019-05-09T02:37:02.927Z,19.78
2019-05-09T02:38:02.919Z,19.78
2019-05-09T02:39:02.902Z,19.76
2019-05-09T02:40:02.893Z,19.78
2019-05-09T02:41:02.909Z,19.75
2019-05-09T02:42:09.117Z,19.79
2019-05-09T02:43:03.856Z,19.66
2019-05-09T02:44:02.851Z,19.80
2019-05-09T02:45:02.836Z,19.76
2019-05-09T02:46:02.926Z,19.76
2019-05-09T02:47:02.815Z,19.75
2019-05-09T02:48:02.810Z,19.73
2019-05-09T02:49:02.795Z,19.78
2019-05-09T02:50:02.780Z,19.70
2019-05-09T02:51:02.794Z,19.70
2019-05-09T02:52:02.762Z,19.78
2019-05-09T02:53:02.769Z,19.80
2019-05-09T02:54:02.739Z,19.80
2019-05-09T02:55:02.730Z,19.78
2019-05-09T02:56:02.715Z,19.65
2019-05-09T02:57:02.725Z,19.78
2019-05-09T02:58:02.691Z,19.75
2019-05-09T02:59:02.681Z,19.75
2019-05-09T03:00:02.674Z,19.70
2019-05-09T03:01:02.660Z,19.69
2019-05-09T03:02:02.671Z,19.76
2019-05-09T03:03:02.641Z,19.68
2019-05-09T03:04:02.628Z,19.73
2019-05-09T03:05:02.615Z,19.72
2019-05-09T03:06:02.602Z,19.72
2019-05-09T03:07:02.615Z,19.65
2019-05-09T03:08:02.590Z,19.69
2019-05-09T03:09:02.587Z,19.79
2019-05-09T03:10:02.564Z,19.66
2019-05-09T03:11:02.550Z,19.72
2019-05-09T03:12:20.993Z,19.73
2019-05-09T03:13:03.525Z,19.68
2019-05-09T03:14:02.519Z,19.79
2019-05-09T03:15:02.503Z,19.69
2019-05-09T03:16:02.493Z,19.69
2019-05-09T03:17:02.509Z,19.68
2019-05-09T03:18:02.471Z,19.69
2019-05-09T03:19:02.488Z,19.69
2019-05-09T03:20:02.448Z,19.69
2019-05-09T03:21:02.437Z,19.70
2019-05-09T03:22:02.430Z,19.68
2019-05-09T03:23:02.443Z,19.63
2019-05-09T03:24:02.410Z,19.69
2019-05-09T03:25:02.393Z,19.72
2019-05-09T03:26:02.382Z,19.72
2019-05-09T03:27:02.381Z,19.68
2019-05-09T03:28:02.383Z,19.66
2019-05-09T03:29:02.349Z,19.72
2019-05-09T03:30:02.342Z,19.69
2019-05-09T03:31:02.337Z,19.66
2019-05-09T03:32:02.326Z,19.66
2019-05-09T03:33:02.326Z,19.68
2019-05-09T03:34:02.301Z,19.70
2019-05-09T03:35:02.282Z,19.63
2019-05-09T03:36:02.273Z,19.69
2019-05-09T03:37:02.265Z,19.66
2019-05-09T03:38:02.272Z,19.61
2019-05-09T03:39:02.263Z,19.66
2019-05-09T03:40:02.227Z,19.60
2019-05-09T03:41:02.216Z,19.72
2019-05-09T03:42:02.205Z,19.58
2019-05-09T03:43:02.193Z,19.57
2019-05-09T03:44:02.204Z,19.58
2019-05-09T03:45:02.175Z,19.58
2019-05-09T03:46:02.160Z,19.66
2019-05-09T03:47:02.150Z,19.69
2019-05-09T03:48:02.138Z,19.68
2019-05-09T03:49:02.149Z,19.57
2019-05-09T03:50:02.116Z,19.60
2019-05-09T03:51:02.106Z,19.66
2019-05-09T03:52:02.096Z,19.68
2019-05-09T03:53:02.087Z,19.68
2019-05-09T03:54:02.097Z,19.60
2019-05-09T03:55:02.060Z,19.57
2019-05-09T03:56:02.050Z,19.58
2019-05-09T03:57:02.038Z,19.65
2019-05-09T03:58:02.030Z,19.58
2019-05-09T03:59:02.040Z,19.61
2019-05-09T04:00:02.010Z,19.58
2019-05-09T04:01:01.995Z,19.63
2019-05-09T04:02:01.986Z,19.61
2019-05-09T04:03:01.972Z,19.57
2019-05-09T04:04:01.983Z,19.57
2019-05-09T04:05:01.953Z,19.60
2019-05-09T04:06:03.074Z,19.61
2019-05-09T04:07:01.967Z,19.57
2019-05-09T04:08:01.918Z,19.55
2019-05-09T04:09:01.942Z,19.61
2019-05-09T04:10:01.897Z,19.65
2019-05-09T04:11:01.884Z,19.61
2019-05-09T04:12:01.873Z,19.65
2019-05-09T04:13:01.864Z,19.61
2019-05-09T04:14:01.872Z,19.57
2019-05-09T04:15:01.840Z,19.61
2019-05-09T04:16:01.830Z,19.57
2019-05-09T04:17:01.817Z,19.63
2019-05-09T04:18:01.807Z,19.61
2019-05-09T04:19:01.818Z,19.58
2019-05-09T04:20:01.787Z,19.60
2019-05-09T04:21:01.774Z,19.60
2019-05-09T04:22:02.381Z,19.55
2019-05-09T04:23:01.751Z,19.66
2019-05-09T04:24:01.762Z,19.60
2019-05-09T04:25:01.735Z,19.58
2019-05-09T04:26:01.718Z,19.58
2019-05-09T04:27:01.708Z,19.58
2019-05-09T04:28:01.699Z,19.69
2019-05-09T04:29:01.711Z,19.60
2019-05-09T04:30:01.678Z,19.63
2019-05-09T04:31:01.663Z,19.63
2019-05-09T04:32:01.652Z,19.69
2019-05-09T04:33:01.649Z,19.61
2019-05-09T04:34:01.651Z,19.66
2019-05-09T04:35:01.619Z,19.63
2019-05-09T04:36:01.616Z,19.68
2019-05-09T04:37:01.597Z,19.69
2019-05-09T04:38:01.588Z,19.58
2019-05-09T04:39:01.599Z,19.63
2019-05-09T04:40:03.263Z,19.57
2019-05-09T04:41:01.553Z,19.57
2019-05-09T04:42:05.443Z,19.54
2019-05-09T04:43:13.952Z,19.58
2019-05-09T04:44:05.136Z,19.58
2019-05-09T04:45:03.486Z,19.58
2019-05-09T04:46:01.497Z,19.65
2019-05-09T04:47:03.541Z,19.60
2019-05-09T04:48:01.475Z,19.61
2019-05-09T04:49:02.718Z,19.58
2019-05-09T04:50:01.476Z,19.58
2019-05-09T04:51:01.443Z,19.57
2019-05-09T04:52:01.437Z,19.65
2019-05-09T04:53:01.423Z,19.69
2019-05-09T04:54:01.414Z,19.69
2019-05-09T04:55:01.429Z,19.66
2019-05-09T04:56:01.387Z,19.70
2019-05-09T04:57:01.387Z,19.68
2019-05-09T04:58:01.364Z,19.69
2019-05-09T04:59:01.355Z,19.70
2019-05-09T05:00:01.375Z,19.68
2019-05-09T05:01:01.333Z,19.68
2019-05-09T05:02:01.338Z,19.72
2019-05-09T05:03:01.310Z,19.70
2019-05-09T05:04:01.299Z,19.70
2019-05-09T05:05:01.310Z,19.70
2019-05-09T05:06:01.292Z,19.72
2019-05-09T05:07:01.267Z,19.72
2019-05-09T05:08:01.260Z,19.73
2019-05-09T05:09:01.248Z,19.78
2019-05-09T05:10:01.256Z,19.75
2019-05-09T05:11:01.222Z,19.78
2019-05-09T05:12:01.214Z,19.80
2019-05-09T05:13:01.212Z,19.86
2019-05-09T05:14:01.189Z,19.87
2019-05-09T05:15:01.199Z,19.84
2019-05-09T05:16:01.167Z,19.84
2019-05-09T05:17:07.444Z,19.88
2019-05-09T05:18:02.147Z,19.90
2019-05-09T05:19:01.138Z,19.91
2019-05-09T05:20:01.144Z,19.97
2019-05-09T05:21:01.126Z,19.93
2019-05-09T05:22:01.101Z,19.94
2019-05-09T05:23:01.093Z,19.94
2019-05-09T05:24:01.081Z,19.94
2019-05-09T05:25:01.171Z,19.95
2019-05-09T05:26:01.057Z,19.98
2019-05-09T05:27:01.047Z,19.97
2019-05-09T05:28:01.036Z,19.95
2019-05-09T05:29:01.024Z,19.93
2019-05-09T05:30:01.040Z,20.05
2019-05-09T05:31:01.027Z,19.98
2019-05-09T05:32:00.992Z,20.02
2019-05-09T05:33:00.986Z,19.98
2019-05-09T05:34:00.970Z,20.03
2019-05-09T05:35:00.959Z,20.06
2019-05-09T05:36:00.969Z,20.02
2019-05-09T05:37:00.938Z,19.98
2019-05-09T05:38:00.928Z,20.05
2019-05-09T05:39:00.917Z,20.15
2019-05-09T05:40:00.905Z,20.15
2019-05-09T05:41:00.913Z,20.12
2019-05-09T05:42:00.881Z,20.23
2019-05-09T05:43:00.870Z,20.18
2019-05-09T05:44:00.861Z,20.23
2019-05-09T05:45:00.852Z,20.23
2019-05-09T05:46:00.863Z,20.28
2019-05-09T05:47:00.826Z,20.31
2019-05-09T05:48:00.817Z,20.27
2019-05-09T05:49:00.807Z,20.31
2019-05-09T05:50:00.793Z,20.41
2019-05-09T05:51:00.806Z,20.42
2019-05-09T05:52:00.771Z,20.41
2019-05-09T05:53:00.763Z,20.47
2019-05-09T05:54:01.471Z,20.50
2019-05-09T05:55:00.742Z,20.58
2019-05-09T05:56:00.761Z,20.56
2019-05-09T05:57:00.715Z,20.54
2019-05-09T05:58:00.705Z,20.65
2019-05-09T05:59:00.694Z,20.65
2019-05-09T06:00:00.683Z,20.72
2019-05-09T06:01:04.194Z,20.71
2019-05-09T06:02:00.660Z,20.69
2019-05-09T06:03:00.651Z,20.77
2019-05-09T06:04:00.642Z,20.89
2019-05-09T06:05:00.630Z,20.98
2019-05-09T06:06:00.640Z,20.99
2019-05-09T06:07:00.608Z,20.90
2019-05-09T06:08:00.595Z,20.90
2019-05-09T06:09:00.592Z,20.91
2019-05-09T06:10:00.575Z,20.91
2019-05-09T06:11:00.587Z,20.91
2019-05-09T06:12:00.570Z,20.98
2019-05-09T06:13:00.547Z,20.96
2019-05-09T06:14:08.632Z,21.01
2019-05-09T06:15:01.517Z,21.02
2019-05-09T06:16:00.505Z,21.02
2019-05-09T06:17:00.518Z,21.01
2019-05-09T06:18:00.484Z,21.04
2019-05-09T06:19:00.473Z,21.02
2019-05-09T06:20:00.462Z,21.11
2019-05-09T06:21:00.451Z,21.08
2019-05-09T06:22:00.464Z,21.13
2019-05-09T06:23:00.429Z,21.13
2019-05-09T06:24:00.431Z,21.16
2019-05-09T06:25:00.419Z,21.04
2019-05-09T06:26:00.400Z,21.09
2019-05-09T06:27:00.407Z,21.14
2019-05-09T06:28:00.373Z,21.04
2019-05-09T06:29:00.366Z,21.09
2019-05-09T06:30:00.353Z,21.11
2019-05-09T06:31:00.348Z,21.13
2019-05-09T06:32:01.254Z,21.17
2019-05-09T06:33:00.322Z,21.16
2019-05-09T06:34:00.306Z,21.20
2019-05-09T06:35:00.296Z,21.11
2019-05-09T06:36:00.285Z,21.21
2019-05-09T06:37:03.081Z,21.14
2019-05-09T06:38:00.282Z,21.26
2019-05-09T06:39:00.266Z,21.24
2019-05-09T06:40:00.239Z,21.29
2019-05-09T06:41:00.228Z,21.21
2019-05-09T06:42:00.240Z,21.21
2019-05-09T06:43:00.318Z,21.21
2019-05-09T06:44:13.283Z,21.21
2019-05-09T06:45:01.186Z,21.26
2019-05-09T06:46:00.176Z,21.26
2019-05-09T06:47:00.186Z,21.23
2019-05-09T06:48:00.438Z,21.26
2019-05-09T06:49:20.151Z,21.30
2019-05-09T06:50:01.137Z,21.38
2019-05-09T06:51:00.118Z,21.30
2019-05-09T06:52:00.106Z,21.38
2019-05-09T06:53:00.122Z,21.42
2019-05-09T06:54:00.084Z,21.38
2019-05-09T06:55:00.094Z,21.45
2019-05-09T06:56:00.066Z,21.42
2019-05-09T06:57:00.051Z,21.39
2019-05-09T06:58:00.064Z,21.45
2019-05-09T06:59:00.028Z,21.41
2019-05-09T07:00:00.017Z,21.48
2019-05-09T07:01:00.011Z,21.48
2019-05-09T07:01:59.994Z,21.48
2019-05-09T07:03:00.821Z,21.48
2019-05-09T07:03:59.972Z,21.51
2019-05-09T07:04:59.977Z,21.44
2019-05-09T07:05:59.951Z,21.48
2019-05-09T07:06:59.943Z,21.50
2019-05-09T07:07:59.930Z,21.41
2019-05-09T07:08:59.937Z,21.57
2019-05-09T07:09:59.906Z,21.42
2019-05-09T07:10:59.896Z,21.56
2019-05-09T07:11:59.884Z,21.56
2019-05-09T07:12:59.875Z,21.56
2019-05-09T07:13:59.890Z,21.50
2019-05-09T07:14:59.852Z,21.54
2019-05-09T07:15:59.839Z,21.54
2019-05-09T07:16:59.828Z,21.59
2019-05-09T07:17:59.816Z,21.63
2019-05-09T07:18:59.825Z,21.63
2019-05-09T07:19:59.811Z,21.61
2019-05-09T07:20:59.784Z,21.61
2019-05-09T07:21:59.775Z,21.66
2019-05-09T07:22:59.762Z,21.61
2019-05-09T07:23:59.770Z,21.66
2019-05-09T07:25:06.681Z,21.66
2019-05-09T07:26:00.728Z,21.71
2019-05-09T07:26:59.717Z,21.71
2019-05-09T07:27:59.713Z,21.72
2019-05-09T07:28:59.723Z,21.79
2019-05-09T07:29:59.689Z,21.76
2019-05-09T07:30:59.682Z,21.76
2019-05-09T07:31:59.664Z,21.78
2019-05-09T07:32:59.656Z,21.90
2019-05-09T07:33:59.639Z,21.83
2019-05-09T07:34:59.652Z,21.92
2019-05-09T07:35:59.616Z,22.01
2019-05-09T07:36:59.608Z,21.98
2019-05-09T07:37:59.607Z,21.98
2019-05-09T07:38:59.591Z,22.02
2019-05-09T07:39:59.595Z,22.01
2019-05-09T07:40:59.561Z,22.02
2019-05-09T07:41:59.565Z,21.98
2019-05-09T07:42:59.542Z,22.07
2019-05-09T07:43:59.532Z,22.10
2019-05-09T07:44:59.719Z,22.12
2019-05-09T07:45:59.509Z,22.14
2019-05-09T07:46:59.500Z,22.12
2019-05-09T07:47:59.493Z,22.17
2019-05-09T07:48:59.474Z,22.17
2019-05-09T07:49:59.483Z,22.13
2019-05-09T07:50:59.808Z,22.13
2019-05-09T07:52:06.075Z,22.20
2019-05-09T07:53:00.426Z,22.22
2019-05-09T07:53:59.417Z,22.32
2019-05-09T07:54:59.429Z,22.34
2019-05-09T07:55:59.398Z,22.31
2019-05-09T07:56:59.384Z,22.29
2019-05-09T07:57:59.412Z,22.37
2019-05-09T07:58:59.366Z,22.32
2019-05-09T07:59:59.371Z,22.34
2019-05-09T08:01:01.609Z,22.31
2019-05-09T08:01:59.329Z,22.43
2019-05-09T08:02:59.317Z,22.38
2019-05-09T08:03:59.307Z,22.39
2019-05-09T08:04:59.317Z,22.39
2019-05-09T08:05:59.287Z,22.43
2019-05-09T08:06:59.280Z,22.44
2019-05-09T08:07:59.262Z,22.41
2019-05-09T08:08:59.253Z,22.41
2019-05-09T08:09:59.264Z,22.35
2019-05-09T08:10:59.260Z,22.38
2019-05-09T08:11:59.218Z,22.37
2019-05-09T08:12:59.216Z,22.41
2019-05-09T08:13:59.242Z,22.41
2019-05-09T08:15:08.609Z,22.37
2019-05-09T08:16:00.195Z,22.46
2019-05-09T08:16:59.162Z,22.52
2019-05-09T08:17:59.441Z,22.52
2019-05-09T08:18:59.142Z,22.47
2019-05-09T08:19:59.130Z,22.53
2019-05-09T08:20:59.141Z,22.54
2019-05-09T08:21:59.112Z,22.57
2019-05-09T08:23:02.084Z,22.50
2019-05-09T08:23:59.086Z,22.49
2019-05-09T08:24:59.080Z,22.50
2019-05-09T08:25:59.088Z,22.52
2019-05-09T08:26:59.053Z,22.50
2019-05-09T08:27:59.076Z,22.54
2019-05-09T08:28:59.037Z,22.54
2019-05-09T08:29:59.019Z,22.47
2019-05-09T08:30:59.033Z,22.53
2019-05-09T08:31:58.996Z,22.56
2019-05-09T08:32:59.917Z,22.50
2019-05-09T08:33:59.590Z,22.52
2019-05-09T08:34:58.963Z,22.49
2019-05-09T08:35:58.978Z,22.59
2019-05-09T08:36:58.941Z,22.54
2019-05-09T08:37:58.937Z,22.54
2019-05-09T08:38:59.279Z,22.57
2019-05-09T08:39:58.908Z,22.60
2019-05-09T08:40:58.983Z,22.59
2019-05-09T08:41:59.441Z,22.56
2019-05-09T08:42:59.217Z,22.69
2019-05-09T08:43:59.101Z,22.68
2019-05-09T08:44:58.858Z,22.68
2019-05-09T08:45:58.863Z,22.65
2019-05-09T08:46:58.842Z,22.65
2019-05-09T08:47:58.820Z,22.75
2019-05-09T08:48:58.809Z,22.74
2019-05-09T08:49:58.857Z,22.74
2019-05-09T08:50:58.829Z,22.69
2019-05-09T08:52:10.044Z,22.64
2019-05-09T08:52:59.770Z,22.69
2019-05-09T08:53:58.753Z,22.67
2019-05-09T08:54:58.750Z,22.69
2019-05-09T08:55:58.758Z,22.65
2019-05-09T08:56:58.722Z,22.69
2019-05-09T08:57:58.864Z,22.69
2019-05-09T08:59:01.986Z,22.64
2019-05-09T08:59:59.131Z,22.69
2019-05-09T09:01:03.709Z,22.68
2019-05-09T09:02:12.258Z,22.68
2019-05-09T09:02:59.655Z,22.65
2019-05-09T09:03:58.646Z,22.72
2019-05-09T09:04:58.747Z,22.67
2019-05-09T09:06:08.232Z,22.68
2019-05-09T09:06:58.615Z,22.71
2019-05-09T09:07:58.601Z,22.71
2019-05-09T09:08:58.592Z,22.67
2019-05-09T09:09:58.586Z,22.69
2019-05-09T09:10:58.567Z,22.67
2019-05-09T09:11:58.587Z,22.64
2019-05-09T09:12:58.547Z,22.68
2019-05-09T09:13:58.538Z,22.69
2019-05-09T09:14:58.834Z,22.78
2019-05-09T09:16:14.986Z,22.69
2019-05-09T09:16:59.522Z,22.69
2019-05-09T09:17:58.551Z,22.75
2019-05-09T09:18:58.659Z,22.83
2019-05-09T09:19:58.555Z,22.71
2019-05-09T09:20:58.900Z,22.78
2019-05-09T09:22:00.628Z,22.80
2019-05-09T09:22:58.543Z,22.71
2019-05-09T09:23:58.467Z,22.71
2019-05-09T09:24:58.807Z,22.75
2019-05-09T09:25:58.459Z,22.80
2019-05-09T09:26:58.417Z,22.77
2019-05-09T09:27:58.568Z,22.83
2019-05-09T09:28:58.370Z,22.86
2019-05-09T09:30:00.253Z,22.83
2019-05-09T09:30:59.348Z,22.75
2019-05-09T09:31:58.375Z,22.83
2019-05-09T09:32:58.854Z,22.82
2019-05-09T09:33:58.681Z,22.83
2019-05-09T09:34:58.841Z,22.71
2019-05-09T09:35:58.292Z,22.72
2019-05-09T09:37:03.129Z,22.82
2019-05-09T09:37:59.298Z,22.82
2019-05-09T09:38:58.743Z,22.86
2019-05-09T09:39:58.398Z,22.83
2019-05-09T09:40:58.243Z,22.82
2019-05-09T09:41:58.775Z,22.92
2019-05-09T09:42:58.420Z,22.94
2019-05-09T09:43:58.543Z,22.89
2019-05-09T09:44:58.672Z,22.97
2019-05-09T09:46:10.889Z,22.93
2019-05-09T09:46:59.171Z,22.96
2019-05-09T09:47:59.286Z,23.01
2019-05-09T09:48:58.755Z,23.11
2019-05-09T09:50:00.286Z,23.05
2019-05-09T09:50:58.153Z,23.09
2019-05-09T09:51:58.342Z,23.05
2019-05-09T09:52:59.074Z,23.09
2019-05-09T09:53:58.504Z,23.07
2019-05-09T09:54:58.351Z,23.08
2019-05-09T09:56:00.182Z,23.09
2019-05-09T09:56:58.649Z,23.11
2019-05-09T09:57:58.154Z,23.09
2019-05-09T09:58:58.039Z,23.11
2019-05-09T09:59:58.458Z,23.09
2019-05-09T10:00:58.553Z,23.17
2019-05-09T10:01:58.426Z,23.08
2019-05-09T10:02:58.702Z,23.20
2019-05-09T10:04:02.838Z,23.15
2019-05-09T10:04:58.993Z,23.11
2019-05-09T10:05:57.966Z,23.08
2019-05-09T10:06:58.444Z,23.12
2019-05-09T10:07:58.260Z,23.11
2019-05-09T10:08:58.119Z,23.20
2019-05-09T10:09:58.496Z,23.15
2019-05-09T10:10:58.900Z,23.14
2019-05-09T10:12:00.534Z,23.20
2019-05-09T10:13:03.543Z,23.19
2019-05-09T10:13:58.902Z,23.19
2019-05-09T10:14:57.890Z,23.15
2019-05-09T10:15:58.741Z,23.22
2019-05-09T10:16:58.151Z,23.20
2019-05-09T10:17:58.325Z,23.23
2019-05-09T10:18:58.051Z,23.17
2019-05-09T10:19:57.809Z,23.22
2019-05-09T10:20:58.599Z,23.20
2019-05-09T10:21:57.892Z,23.15
2019-05-09T10:23:09.041Z,23.12
2019-05-09T10:23:58.789Z,23.07
2019-05-09T10:24:58.541Z,23.12
2019-05-09T10:25:58.256Z,23.08
2019-05-09T10:26:57.734Z,23.11
2019-05-09T10:27:57.724Z,23.12
2019-05-09T10:28:57.732Z,23.05
2019-05-09T10:29:57.700Z,23.11
2019-05-09T10:30:57.895Z,23.11
2019-05-09T10:31:58.132Z,23.08
2019-05-09T10:32:58.327Z,23.11
2019-05-09T10:33:58.141Z,23.15
2019-05-09T10:34:58.187Z,23.12
2019-05-09T10:36:04.295Z,23.15
2019-05-09T10:36:58.623Z,23.12
2019-05-09T10:37:58.959Z,23.15
2019-05-09T10:38:58.464Z,23.14
2019-05-09T10:39:58.227Z,23.15
2019-05-09T10:41:01.000Z,23.17
2019-05-09T10:41:57.785Z,23.15
2019-05-09T10:42:58.685Z,23.19
2019-05-09T10:43:57.988Z,23.26
2019-05-09T10:44:58.261Z,23.19
2019-05-09T10:45:57.944Z,23.19
2019-05-09T10:47:01.850Z,23.19
2019-05-09T10:47:57.732Z,23.15
2019-05-09T10:48:58.618Z,23.14
2019-05-09T10:49:58.163Z,23.14
2019-05-09T10:51:03.840Z,23.14
2019-05-09T10:51:58.457Z,23.12
2019-05-09T10:52:58.402Z,23.11
2019-05-09T10:53:58.758Z,23.08
2019-05-09T10:54:58.041Z,23.08
2019-05-09T10:55:57.413Z,23.11
2019-05-09T10:56:58.080Z,23.09
2019-05-09T10:58:02.000Z,23.15
2019-05-09T10:58:58.701Z,23.09
2019-05-09T10:59:58.085Z,23.08
2019-05-09T11:00:58.751Z,23.14
2019-05-09T11:01:58.156Z,23.09
2019-05-09T11:02:58.366Z,23.07
2019-05-09T11:03:58.881Z,23.09
2019-05-09T11:04:57.732Z,23.15
2019-05-09T11:05:57.941Z,23.14
2019-05-09T11:06:58.285Z,23.09
2019-05-09T11:07:58.741Z,23.14
2019-05-09T11:08:58.360Z,23.20
2019-05-09T11:09:58.827Z,23.15
2019-05-09T11:10:58.017Z,23.17
2019-05-09T11:12:00.834Z,23.26
2019-05-09T11:12:58.469Z,23.24
2019-05-09T11:13:58.736Z,23.12
2019-05-09T11:14:59.495Z,23.19
2019-05-09T11:15:58.261Z,23.14
2019-05-09T11:17:07.904Z,23.26
2019-05-09T11:17:58.175Z,23.23
2019-05-09T11:18:58.495Z,23.14
2019-05-09T11:19:58.792Z,23.31
2019-05-09T11:20:58.105Z,23.24
2019-05-09T11:21:58.671Z,23.20
2019-05-09T11:22:58.217Z,23.22
2019-05-09T11:23:58.255Z,23.22
2019-05-09T11:24:58.002Z,23.29
2019-05-09T11:25:58.092Z,23.34
2019-05-09T11:26:58.849Z,23.35
2019-05-09T11:28:09.968Z,23.31
2019-05-09T11:28:58.808Z,23.32
2019-05-09T11:29:57.763Z,23.38
2019-05-09T11:30:58.344Z,23.45
2019-05-09T11:31:58.652Z,23.39
2019-05-09T11:32:57.007Z,23.43
2019-05-09T11:33:57.906Z,23.50
2019-05-09T11:34:57.623Z,23.52
2019-05-09T11:35:58.079Z,23.57
2019-05-09T11:36:57.962Z,23.50
2019-05-09T11:37:58.729Z,23.55
2019-05-09T11:39:00.634Z,23.52
2019-05-09T11:39:57.990Z,23.64
2019-05-09T11:40:57.902Z,23.57
2019-05-09T11:41:58.573Z,23.55
2019-05-09T11:42:56.901Z,23.58
2019-05-09T11:43:59.295Z,23.55
2019-05-09T11:44:58.005Z,23.65
2019-05-09T11:45:58.647Z,23.58
2019-05-09T11:46:58.213Z,23.65
2019-05-09T11:47:58.306Z,23.50
2019-05-09T11:48:58.523Z,23.64
2019-05-09T11:49:57.808Z,23.61
2019-05-09T11:50:59.009Z,23.67
2019-05-09T11:51:57.713Z,23.61
2019-05-09T11:52:59.765Z,23.55
2019-05-09T11:53:58.072Z,23.58
2019-05-09T11:54:58.042Z,23.45
2019-05-09T11:55:57.847Z,23.34
2019-05-09T11:56:57.657Z,23.35
2019-05-09T11:57:59.034Z,23.34
2019-05-09T11:58:57.942Z,23.23
2019-05-09T11:59:57.832Z,23.32
2019-05-09T12:00:56.720Z,23.19
2019-05-09T12:01:58.594Z,23.19
2019-05-09T12:02:58.176Z,23.08
2019-05-09T12:03:57.791Z,23.12
2019-05-09T12:04:56.660Z,23.01
2019-05-09T12:06:02.160Z,23.04
2019-05-09T12:06:57.749Z,23.09
2019-05-09T12:07:58.122Z,23.05
2019-05-09T12:08:58.827Z,23.09
2019-05-09T12:09:58.965Z,23.09
2019-05-09T12:10:57.921Z,23.07
2019-05-09T12:11:59.015Z,23.14
2019-05-09T12:12:57.618Z,23.12
2019-05-09T12:13:58.197Z,23.12
2019-05-09T12:14:58.099Z,23.17
2019-05-09T12:15:58.438Z,23.23
2019-05-09T12:16:56.546Z,23.14
2019-05-09T12:18:02.197Z,23.26
2019-05-09T12:18:58.500Z,23.20
2019-05-09T12:20:09.840Z,23.19
2019-05-09T12:20:57.716Z,23.14
2019-05-09T12:21:58.260Z,23.19
2019-05-09T12:22:58.450Z,23.14
2019-05-09T12:23:58.073Z,23.14
2019-05-09T12:24:58.730Z,23.11
2019-05-09T12:25:58.208Z,23.09
2019-05-09T12:26:57.632Z,23.02
2019-05-09T12:27:58.439Z,22.92
2019-05-09T12:28:57.848Z,22.82
2019-05-09T12:29:58.129Z,22.82
2019-05-09T12:30:56.370Z,22.87
2019-05-09T12:31:56.385Z,22.80
2019-05-09T12:32:58.625Z,22.72
2019-05-09T12:33:58.819Z,22.64
2019-05-09T12:34:57.728Z,22.67
2019-05-09T12:35:58.768Z,22.68
2019-05-09T12:36:58.584Z,22.74
2019-05-09T12:37:56.297Z,22.77
2019-05-09T12:38:58.751Z,22.67
2019-05-09T12:39:58.356Z,22.69
2019-05-09T12:41:00.300Z,22.62
2019-05-09T12:41:57.897Z,22.64
2019-05-09T12:42:56.257Z,22.59
2019-05-09T12:43:57.419Z,22.64
2019-05-09T12:44:58.788Z,22.60
2019-05-09T12:45:57.771Z,22.46
2019-05-09T12:46:58.176Z,22.46
2019-05-09T12:48:07.693Z,22.47
2019-05-09T12:48:59.149Z,22.47
2019-05-09T12:50:00.378Z,22.49
2019-05-09T12:50:58.565Z,22.56
2019-05-09T12:51:58.158Z,22.56